Flight Track Log - Related Links

Times and Time Zones

All times are in EDT time to prevent confusion due to time zone crossing. See the ASQ5678 flight status page for this flight to view local times or setup timezone preferences in your user account.


Time Position Orientation Groundspeed Altitude Reporting Facility
EDT Latitude Longitude Course Direction KTS MPH feet Rate Location/Type
Mon 02:28:25 PM 44.2778 -73.1853 196° South 241 277 8,700  Level Boston Center
Mon 02:29:00 PM 44.1935 -73.2516 190° South  Level FlightAware Approximate
Mon 02:29:25 PM 44.2067 -73.2133 196° South 252 290 10,400  Level Boston Center
Mon 02:30:00 PM 44.1235 -73.2691 190° South  Level FlightAware Approximate
Mon 02:30:25 PM 44.1231 -73.2469 196° South 285 328 11,400  Level Boston Center
Mon 02:31:00 PM 44.0539 -73.2885 196° South  Level FlightAware Approximate
Mon 02:31:25 PM 44.0394 -73.2806 196° South 334 384 13,000  Level Boston Center
Mon 02:32:00 PM 43.9855 -73.3158 196° South  Level FlightAware Approximate
Mon 02:32:25 PM 43.9497 -73.3167 196° South 345 397 14,600  Level Boston Center
Mon 02:33:00 PM 43.9172 -73.3431 196° South  Level FlightAware Approximate
Mon 02:33:25 PM 43.8556 -73.3556 197° South 350 403 16,100  Level Boston Center
Mon 02:34:25 PM 43.7572 -73.3944 196° South 355 409 17,500 1,300 Climbing Boston Center
Mon 02:35:25 PM 43.6589 -73.4331 196° South 365 420 18,700 1,200 Climbing Boston Center
Mon 02:36:25 PM 43.5586 -73.4714 195° South 370 426 19,900 1,250 Climbing Boston Center
Mon 02:37:25 PM 43.4561 -73.5097 195° South 375 432 21,200 1,050 Climbing Boston Center
Mon 02:38:25 PM 43.3536 -73.5508 196° South 380 437 22,000 400 Climbing Boston Center
Mon 02:39:25 PM 43.2428 -73.5944 196° South 392 451 22,000  Level Boston Center
Mon 02:40:25 PM 43.1528 -73.6297 196° South 406 467 22,000 -700 Level Boston Center
Mon 02:41:25 PM 43.0106 -73.6922 198° South 418 481 20,600 -1,850 Descending Boston Center
Mon 02:42:25 PM 42.9161 -73.7328 197° South 410 472 18,300 -2,250 Descending Boston Center
Mon 02:43:25 PM 42.8031 -73.7842 198° South 394 453 16,100 -1,200 Descending Boston Center
Mon 02:44:25 PM 42.7114 -73.7767 177° South 355 409 15,900 -100 Descending Boston Center
Mon 02:45:25 PM 42.6306 -73.7411 162° South 326 375 15,900  Level Boston Center
Mon 02:46:25 PM 42.5539 -73.7000 158° South 326 375 15,900  Level Boston Center
Mon 02:47:25 PM 42.4625 -73.6586 162° South 326 375 15,900  Level Boston Center
Mon 02:48:25 PM 42.3856 -73.6486 175° South 306 352 15,900  Level Boston Center
Mon 02:49:25 PM 42.2958 -73.6667 188° South 301 346 15,900  Level Boston Center
Mon 02:50:25 PM 42.2328 -73.7019 203° Southwest 296 341 15,900 50 Level Boston Center
Mon 02:51:25 PM 42.1467 -73.7644 208° Southwest 301 346 16,000  Climbing Boston Center
Mon 02:52:25 PM 42.1247 -73.8619 253° West 290 334 15,900 -50 Descending Boston Center
Mon 02:53:25 PM 42.0961 -73.9789 252° West 301 346 15,900  Level Boston Center
Mon 02:54:25 PM 42.0758 -74.0875 256° West 307 353 15,900 -550 Level Boston Center
Mon 02:55:25 PM 42.0700 -74.1992 266° West 307 353 14,800 -1,450 Descending Boston Center
Mon 02:56:25 PM 42.0661 -74.3139 267° West 307 353 13,000 -1,500 Descending Boston Center
Mon 02:57:25 PM 42.0597 -74.4311 266° West 318 366 11,800 -1,000 Descending Boston Center
Mon 02:58:25 PM 42.0558 -74.5344 267° West 311 358 11,000 -400 Descending Boston Center
Mon 02:59:25 PM 41.9892 -74.5406 184° South 206 237 11,000  Level Boston Center
Mon 03:00:25 PM 41.9294 -74.4994 153° Southeast 205 236 11,000  Level Boston Center
Mon 03:01:25 PM 41.8719 -74.4475 146° Southeast 244 281 11,000  Level Boston Center
Mon 03:02:25 PM 41.8144 -74.4011 149° Southeast 251 289 11,000  Level Boston Center
Mon 03:03:25 PM 41.7528 -74.3519 149° Southeast 251 289 11,000  Level Boston Center
Mon 03:04:25 PM 41.6911 -74.3028 149° Southeast 256 295 11,000  Level Boston Center
Mon 03:05:25 PM 41.6500 -74.2708 150° Southeast 251 289 11,000  Level Boston Center
Mon 03:06:25 PM 41.6319 -74.3539 254° West 127 146 11,000 -400 Level Boston Center
Mon 03:07:25 PM 41.7025 -74.3725 349° North 131 151 10,200 -500 Descending Boston Center
Mon 03:08:25 PM 41.7717 -74.3442 17° North 202 232 10,000 -50 Descending Boston Center
Mon 03:09:25 PM 41.8381 -74.3683 345° North 242 278 10,100 -100 Climbing Boston Center
Mon 03:10:25 PM 41.8722 -74.4336 305° West 220 253 9,800 -500 Descending Boston Center
Mon 03:11:25 PM 41.8119 -74.4289 177° South 119 137 9,100 -800 Descending Boston Center
Mon 03:12:25 PM 41.8156 -74.3397 87° East 167 192 8,200 -550 Descending Boston Center
Mon 03:13:25 PM 41.8275 -74.2456 80° East 228 262 8,000 -450 Descending Boston Center
Mon 03:14:25 PM 41.7842 -74.2081 147° Southeast 189 217 7,300 -500 Descending Boston Center
Mon 03:15:25 PM 41.7253 -74.2397 202° Southwest 195 224 7,000 -150 Descending Boston Center
Mon 03:16:25 PM 41.6625 -74.2714 201° Southwest 225 259 7,000 50 Level Boston Center
Mon 03:17:25 PM 41.5994 -74.2972 197° South 242 278 7,100  Climbing Boston Center
Mon 03:18:25 PM 41.5383 -74.3289 201° Southwest 242 278 7,000  Descending Boston Center
Mon 03:20:31 PM 41.4000 -74.3833 196° South 239 275 7,100 31 Climbing New York TRACON
Mon 03:21:37 PM 41.3333 -74.4167 201° Southwest 243 280 7,100  Level New York TRACON
Mon 03:22:37 PM 41.2667 -74.4500 201° Southwest 240 276 7,100  Level New York TRACON
Mon 03:23:37 PM 41.2000 -74.4833 201° Southwest 245 282 7,100  Level New York TRACON
Mon 03:24:37 PM 41.1500 -74.5000 194° South 221 254 7,100 -150 Level New York TRACON
Mon 03:25:37 PM 41.1167 -74.4500 131° Southeast 247 284 6,800 -600 Descending New York TRACON
Mon 03:26:37 PM 41.1333 -74.3667 75° East 247 284 5,900 -850 Descending New York TRACON
Mon 03:27:37 PM 41.1167 -74.3000 108° East 212 244 5,100 -400 Descending New York TRACON
Mon 03:28:37 PM 41.0667 -74.2333 135° Southeast 209 241 5,100 -250 Level New York TRACON
Mon 03:29:37 PM 41.0333 -74.1833 131° Southeast 204 235 4,600 -550 Descending New York TRACON
Mon 03:30:37 PM 40.9833 -74.1667 166° South 172 198 4,000 -600 Descending New York TRACON
Mon 03:31:37 PM 40.9500 -74.1333 143° Southeast 165 190 3,400 -500 Descending New York TRACON
Mon 03:32:37 PM 40.9000 -74.1167 166° South 164 189 3,000 -200 Descending New York TRACON
Mon 03:33:37 PM 40.8667 -74.0667 131° Southeast 164 189 3,000  Level New York TRACON

Login

Don't have an account? Register now (free) for customized features, flight alerts, and more!